createdAt,value
2022-12-03T00:02:40.803Z,76.89
2022-12-03T00:07:39.271Z,76.52
2022-12-03T00:12:39.321Z,76.80
2022-12-03T00:17:39.324Z,76.91
2022-12-03T00:22:39.203Z,77.17
2022-12-03T00:27:39.243Z,77.23
2022-12-03T00:32:39.153Z,76.99
2022-12-03T00:37:39.269Z,76.89
2022-12-03T00:42:39.206Z,76.82
2022-12-03T00:47:39.253Z,77.18
2022-12-03T00:52:39.280Z,77.21
2022-12-03T00:57:39.214Z,77.03
2022-12-03T01:02:39.896Z,77.09
2022-12-03T01:07:39.252Z,77.38
2022-12-03T01:12:39.412Z,77.44
2022-12-03T01:17:39.318Z,77.58
2022-12-03T01:22:39.364Z,77.81
2022-12-03T01:27:39.378Z,77.92
2022-12-03T01:32:39.360Z,77.80
2022-12-03T01:37:39.349Z,77.86
2022-12-03T01:42:40.939Z,77.77
2022-12-03T01:47:39.505Z,78.03
2022-12-03T01:52:39.753Z,78.01
2022-12-03T01:57:43.725Z,77.82
2022-12-03T02:02:39.755Z,78.11
2022-12-03T02:07:39.432Z,78.25
2022-12-03T02:12:47.746Z,78.16
2022-12-03T02:17:39.703Z,78.50
2022-12-03T02:22:55.190Z,78.36
2022-12-03T02:27:39.994Z,78.34
2022-12-03T02:32:39.479Z,78.31
2022-12-03T02:37:40.893Z,78.53
2022-12-03T02:42:41.669Z,78.53
2022-12-03T02:47:43.493Z,78.61
2022-12-03T02:52:41.738Z,78.58
2022-12-03T02:57:40.171Z,78.52
2022-12-03T03:02:42.084Z,78.56
2022-12-03T03:07:40.801Z,78.70
2022-12-03T03:12:40.216Z,78.84
2022-12-03T03:17:40.151Z,78.88
2022-12-03T03:22:41.171Z,78.95
2022-12-03T03:27:40.944Z,79.01
2022-12-03T03:32:41.217Z,78.95
2022-12-03T03:37:40.327Z,78.97
2022-12-03T03:42:39.621Z,79.03
2022-12-03T03:47:41.061Z,79.02
2022-12-03T03:52:40.612Z,78.95
2022-12-03T03:57:39.809Z,78.86
2022-12-03T04:02:41.356Z,78.75
2022-12-03T04:07:39.668Z,78.80
2022-12-03T04:12:39.681Z,78.62
2022-12-03T04:17:39.680Z,78.47
2022-12-03T04:22:39.675Z,78.33
2022-12-03T04:27:39.745Z,78.54
2022-12-03T04:32:39.703Z,78.20
2022-12-03T04:37:39.774Z,77.57
2022-12-03T04:42:39.707Z,77.07
2022-12-03T04:47:40.115Z,76.46
2022-12-03T04:52:39.739Z,75.61
2022-12-03T04:57:39.806Z,75.74
2022-12-03T05:02:40.334Z,74.96
2022-12-03T05:07:39.795Z,75.27
2022-12-03T05:12:39.805Z,74.72
2022-12-03T05:17:39.875Z,75.06
2022-12-03T05:22:39.854Z,75.08
2022-12-03T05:27:39.868Z,75.00
2022-12-03T05:32:39.889Z,75.56
2022-12-03T05:37:39.893Z,75.62
2022-12-03T05:42:40.034Z,75.62
2022-12-03T05:47:39.870Z,75.69
2022-12-03T05:52:40.257Z,75.91
2022-12-03T05:57:40.027Z,76.07
2022-12-03T06:02:40.922Z,76.18
2022-12-03T06:07:40.358Z,75.99
2022-12-03T06:12:40.271Z,76.16
2022-12-03T06:17:40.382Z,76.46
2022-12-03T06:22:39.995Z,76.79
2022-12-03T06:27:40.089Z,76.62
2022-12-03T06:32:40.216Z,76.80
2022-12-03T06:37:39.961Z,77.08
2022-12-03T06:42:40.010Z,77.20
2022-12-03T06:47:39.999Z,77.37
2022-12-03T06:52:40.040Z,77.61
2022-12-03T06:57:40.136Z,77.80
2022-12-03T07:02:40.602Z,77.71
2022-12-03T07:07:40.139Z,77.98
2022-12-03T07:12:40.062Z,77.99
2022-12-03T07:17:40.078Z,78.08
2022-12-03T07:22:40.088Z,78.24
2022-12-03T07:27:40.209Z,78.03
2022-12-03T07:32:40.193Z,78.23
2022-12-03T07:37:40.129Z,78.12
2022-12-03T07:42:40.145Z,78.24
2022-12-03T07:47:40.207Z,78.38
2022-12-03T07:52:40.142Z,78.51
2022-12-03T07:57:40.222Z,78.63
2022-12-03T08:02:41.005Z,78.48
2022-12-03T08:07:40.242Z,78.80
2022-12-03T08:12:40.492Z,78.37
2022-12-03T08:17:40.958Z,78.74
2022-12-03T08:22:41.868Z,78.90
2022-12-03T08:27:40.341Z,79.07
2022-12-03T08:32:40.973Z,78.99
2022-12-03T08:37:40.588Z,79.09
2022-12-03T08:42:40.265Z,79.09
2022-12-03T08:47:40.348Z,78.76
2022-12-03T08:52:40.273Z,78.82
2022-12-03T08:57:40.403Z,78.75
2022-12-03T09:02:47.068Z,78.58
2022-12-03T09:07:40.410Z,78.47
2022-12-03T09:12:40.428Z,78.46
2022-12-03T09:17:40.368Z,78.49
2022-12-03T09:22:40.424Z,78.45
2022-12-03T09:27:40.364Z,78.59
2022-12-03T09:32:40.536Z,78.40
2022-12-03T09:37:40.472Z,78.87
2022-12-03T09:42:40.627Z,78.74
2022-12-03T09:47:43.759Z,78.80
2022-12-03T09:52:40.558Z,78.94
2022-12-03T09:57:40.455Z,78.79
2022-12-03T10:02:42.734Z,78.47
2022-12-03T10:07:41.423Z,78.54
2022-12-03T10:12:40.555Z,78.40
2022-12-03T10:17:40.648Z,78.65
2022-12-03T10:22:40.664Z,78.25
2022-12-03T10:27:41.321Z,78.00
2022-12-03T10:32:44.259Z,77.93
2022-12-03T10:37:53.704Z,78.33
2022-12-03T10:42:40.676Z,78.10
2022-12-03T10:47:42.147Z,77.88
2022-12-03T10:52:40.710Z,77.89
2022-12-03T10:57:45.365Z,78.25
2022-12-03T11:02:42.040Z,78.48
2022-12-03T11:07:42.333Z,78.62
2022-12-03T11:12:41.138Z,78.42
2022-12-03T11:17:44.049Z,78.82
2022-12-03T11:22:43.064Z,78.85
2022-12-03T11:27:40.637Z,78.93
2022-12-03T11:32:41.638Z,79.20
2022-12-03T11:37:41.085Z,79.44
2022-12-03T11:42:41.090Z,79.49
2022-12-03T11:47:53.673Z,79.64
2022-12-03T11:52:44.029Z,79.53
2022-12-03T11:57:40.986Z,79.69
2022-12-03T12:02:41.818Z,79.67
2022-12-03T12:07:40.811Z,79.48
2022-12-03T12:12:45.633Z,79.46
2022-12-03T12:17:40.743Z,79.68
2022-12-03T12:22:40.813Z,79.66
2022-12-03T12:27:40.811Z,79.21
2022-12-03T12:32:46.636Z,79.50
2022-12-03T12:37:56.808Z,79.38
2022-12-03T12:42:47.817Z,79.69
2022-12-03T12:47:46.584Z,79.61
2022-12-03T12:52:50.854Z,79.59
2022-12-03T12:57:41.143Z,79.49
2022-12-03T13:02:47.552Z,79.53
2022-12-03T13:07:42.225Z,79.70
2022-12-03T13:12:40.921Z,79.92
2022-12-03T13:17:40.901Z,79.99
2022-12-03T13:22:44.389Z,80.16
2022-12-03T13:27:45.568Z,80.26
2022-12-03T13:32:42.180Z,80.22
2022-12-03T13:37:40.931Z,80.62
2022-12-03T13:42:40.959Z,80.42
2022-12-03T13:47:43.191Z,80.31
2022-12-03T13:52:40.969Z,80.06
2022-12-03T13:57:40.959Z,80.04
2022-12-03T14:02:42.953Z,80.24
2022-12-03T14:07:41.079Z,80.26
2022-12-03T14:12:41.133Z,80.06
2022-12-03T14:17:41.177Z,80.19
2022-12-03T14:22:41.052Z,80.22
2022-12-03T14:27:41.107Z,80.35
2022-12-03T14:32:41.196Z,80.39
2022-12-03T14:37:41.084Z,80.45
2022-12-03T14:42:41.078Z,80.61
2022-12-03T14:47:41.107Z,80.63
2022-12-03T14:52:41.099Z,80.61
2022-12-03T14:57:41.129Z,80.65
2022-12-03T15:02:42.972Z,80.53
2022-12-03T15:07:41.144Z,80.59
2022-12-03T15:12:41.209Z,80.63
2022-12-03T15:17:41.205Z,80.55
2022-12-03T15:22:41.183Z,80.60
2022-12-03T15:27:41.211Z,80.55
2022-12-03T15:32:41.210Z,80.18
2022-12-03T15:37:41.315Z,80.34
2022-12-03T15:42:41.204Z,80.57
2022-12-03T15:47:41.367Z,80.71
2022-12-03T15:52:41.222Z,80.68
2022-12-03T15:57:41.560Z,80.82
2022-12-03T16:02:47.500Z,80.92
2022-12-03T16:07:41.416Z,81.06
2022-12-03T16:12:41.260Z,80.79
2022-12-03T16:17:41.374Z,80.84
2022-12-03T16:22:41.319Z,81.05
2022-12-03T16:27:41.321Z,80.89
2022-12-03T16:32:41.359Z,80.96
2022-12-03T16:37:41.434Z,80.82
2022-12-03T16:42:41.325Z,81.05
2022-12-03T16:47:41.409Z,80.59
2022-12-03T16:52:41.460Z,80.79
2022-12-03T16:57:41.388Z,80.62
2022-12-03T17:02:42.265Z,80.54
2022-12-03T17:07:41.486Z,80.57
2022-12-03T17:13:08.414Z,80.21
2022-12-03T17:17:41.448Z,80.40
2022-12-03T17:22:41.526Z,80.32
2022-12-03T17:27:45.049Z,80.30
2022-12-03T17:32:41.651Z,80.24
2022-12-03T17:37:41.500Z,80.18
2022-12-03T17:42:41.643Z,80.06
2022-12-03T17:47:41.488Z,79.76
2022-12-03T17:52:41.490Z,80.02
2022-12-03T17:57:41.589Z,79.72
2022-12-03T18:02:43.013Z,79.80
2022-12-03T18:07:41.656Z,79.83
2022-12-03T18:12:41.893Z,79.69
2022-12-03T18:17:41.652Z,79.90
2022-12-03T18:22:41.796Z,79.66
2022-12-03T18:27:41.574Z,79.99
2022-12-03T18:32:41.723Z,80.00
2022-12-03T18:37:41.718Z,79.80
2022-12-03T18:42:41.662Z,79.63
2022-12-03T18:47:43.448Z,79.64
2022-12-03T18:52:41.637Z,79.84
2022-12-03T18:57:41.670Z,79.68
2022-12-03T19:03:03.020Z,80.00
2022-12-03T19:07:41.752Z,80.15
2022-12-03T19:12:41.797Z,80.08
2022-12-03T19:17:42.127Z,80.33
2022-12-03T19:22:41.723Z,80.26
2022-12-03T19:27:42.328Z,80.11
2022-12-03T19:32:41.809Z,80.21
2022-12-03T19:37:41.858Z,80.17
2022-12-03T19:42:42.305Z,80.20
2022-12-03T19:47:41.773Z,79.98
2022-12-03T19:52:41.823Z,80.07
2022-12-03T19:57:41.762Z,79.89
2022-12-03T20:02:42.502Z,80.12
2022-12-03T20:07:41.864Z,80.21
2022-12-03T20:12:41.807Z,80.21
2022-12-03T20:17:42.008Z,80.14
2022-12-03T20:22:41.816Z,79.97
2022-12-03T20:27:41.889Z,79.83
2022-12-03T20:32:45.238Z,79.65
2022-12-03T20:37:41.866Z,79.65
2022-12-03T20:42:45.350Z,79.75
2022-12-03T20:47:42.008Z,79.98
2022-12-03T20:52:57.623Z,79.44
2022-12-03T20:57:41.913Z,79.68
2022-12-03T21:02:43.712Z,79.41
2022-12-03T21:07:42.033Z,79.41
2022-12-03T21:12:41.937Z,79.53
2022-12-03T21:17:42.191Z,79.02
2022-12-03T21:22:42.205Z,79.26
2022-12-03T21:27:41.961Z,79.67
2022-12-03T21:32:42.010Z,79.55
2022-12-03T21:37:41.993Z,79.28
2022-12-03T21:42:42.019Z,79.36
2022-12-03T21:47:45.662Z,79.48
2022-12-03T21:52:42.034Z,79.21
2022-12-03T21:57:42.151Z,79.04
2022-12-03T22:02:43.650Z,79.28
2022-12-03T22:07:42.206Z,79.38
2022-12-03T22:12:42.088Z,79.47
2022-12-03T22:17:42.162Z,79.57
2022-12-03T22:22:42.168Z,79.47
2022-12-03T22:27:42.110Z,79.04
2022-12-03T22:32:42.162Z,79.74
2022-12-03T22:37:42.148Z,79.70
2022-12-03T22:42:46.322Z,79.47
2022-12-03T22:47:42.242Z,79.71
2022-12-03T22:52:42.167Z,79.82
2022-12-03T22:57:42.340Z,79.68
2022-12-03T23:02:42.824Z,79.53
2022-12-03T23:07:42.281Z,79.57
2022-12-03T23:12:42.280Z,79.83
2022-12-03T23:17:42.237Z,79.92
2022-12-03T23:22:42.313Z,79.78
2022-12-03T23:27:42.777Z,79.70
2022-12-03T23:32:42.319Z,79.93
2022-12-03T23:37:42.639Z,79.95
2022-12-03T23:42:42.308Z,80.10
2022-12-03T23:47:42.335Z,79.95
2022-12-03T23:52:42.473Z,79.99
2022-12-03T23:57:42.411Z,79.96
